createdAt,value
2022-10-23T00:04:33.635Z,6.07
2022-10-23T00:10:35.266Z,5.27
2022-10-23T00:16:36.963Z,5.43
2022-10-23T00:22:38.815Z,5.43
2022-10-23T00:28:40.315Z,5.30
2022-10-23T00:34:41.806Z,5.38
2022-10-23T00:40:45.170Z,5.70
2022-10-23T00:46:46.698Z,5.57
2022-10-23T00:52:50.672Z,5.20
2022-10-23T00:58:52.157Z,4.83
2022-10-23T01:04:53.604Z,5.18
2022-10-23T01:11:03.863Z,5.30
2022-10-23T01:17:07.603Z,5.80
2022-10-23T01:23:24.694Z,5.30
2022-10-23T01:29:29.277Z,5.30
2022-10-23T01:35:37.754Z,5.45
2022-10-23T01:41:48.635Z,5.83
2022-10-23T01:47:56.598Z,5.30
2022-10-23T01:53:59.799Z,5.35
2022-10-23T02:00:07.398Z,5.00
2022-10-23T02:06:25.518Z,4.38
2022-10-23T02:12:43.047Z,5.10
2022-10-23T02:18:57.923Z,4.30
2022-10-23T02:25:04.800Z,4.25
2022-10-23T02:31:07.719Z,4.53
2022-10-23T02:37:09.716Z,4.78
2022-10-23T02:43:15.646Z,4.70
2022-10-23T02:49:27.842Z,4.78
2022-10-23T02:55:29.534Z,4.80
2022-10-23T03:01:46.462Z,4.37
2022-10-23T03:07:49.273Z,4.60
2022-10-23T03:13:52.415Z,4.27
2022-10-23T03:19:54.002Z,5.30
2022-10-23T03:25:56.383Z,4.85
2022-10-23T03:32:08.250Z,3.77
2022-10-23T03:38:09.835Z,3.97
2022-10-23T03:44:11.499Z,4.13
2022-10-23T03:50:19.420Z,4.07
2022-10-23T03:56:21.219Z,4.28
2022-10-23T04:02:22.711Z,3.60
2022-10-23T04:08:26.778Z,3.97
2022-10-23T04:14:29.416Z,3.90
2022-10-23T04:20:31.595Z,3.88
2022-10-23T04:26:36.611Z,4.03
2022-10-23T04:32:38.047Z,3.70
2022-10-23T04:38:39.558Z,3.60
2022-10-23T04:44:41.333Z,4.00
2022-10-23T04:50:43.033Z,4.22
2022-10-23T04:57:03.305Z,3.53
2022-10-23T05:03:19.155Z,4.63
2022-10-23T05:09:22.238Z,3.50
2022-10-23T05:15:50.174Z,3.80
2022-10-23T05:21:55.823Z,3.60
2022-10-23T05:28:01.021Z,3.63
2022-10-23T05:34:02.574Z,3.83
2022-10-23T05:40:05.088Z,3.40
2022-10-23T05:46:09.293Z,3.67
2022-10-23T05:52:28.427Z,3.72
2022-10-23T05:58:50.122Z,3.38
2022-10-23T06:05:03.673Z,3.87
2022-10-23T06:11:06.017Z,3.45
2022-10-23T06:17:07.912Z,3.17
2022-10-23T06:23:15.246Z,3.03
2022-10-23T06:29:48.967Z,4.40
2022-10-23T06:35:50.799Z,2.67
2022-10-23T06:41:52.582Z,2.35
2022-10-23T06:48:14.425Z,2.50
2022-10-23T06:54:15.852Z,2.28
2022-10-23T07:00:38.023Z,2.80
2022-10-23T07:06:41.380Z,3.53
2022-10-23T07:12:44.113Z,2.80
2022-10-23T07:19:04.164Z,2.30
2022-10-23T07:25:25.217Z,2.15
2022-10-23T07:31:28.421Z,2.25
2022-10-23T07:37:48.645Z,2.00
2022-10-23T07:43:50.460Z,2.00
2022-10-23T07:49:52.080Z,2.27
2022-10-23T07:55:59.215Z,2.20
2022-10-23T08:02:15.049Z,2.40
2022-10-23T08:08:18.544Z,2.50
2022-10-23T08:14:23.066Z,2.20
2022-10-23T08:20:24.930Z,2.30
2022-10-23T08:26:29.267Z,2.22
2022-10-23T08:32:31.399Z,2.70
2022-10-23T08:38:35.495Z,1.93
2022-10-23T08:45:05.616Z,2.22
2022-10-23T08:51:16.545Z,2.77
2022-10-23T08:57:18.150Z,2.38
2022-10-23T09:03:19.612Z,2.75
2022-10-23T09:09:35.472Z,2.60
2022-10-23T09:15:42.290Z,2.10
2022-10-23T09:21:49.800Z,2.30
2022-10-23T09:27:56.104Z,2.50
2022-10-23T09:34:00.788Z,2.05
2022-10-23T09:40:05.207Z,2.17
2022-10-23T09:46:07.093Z,2.10
2022-10-23T09:52:10.616Z,1.93
2022-10-23T09:58:20.153Z,2.00
2022-10-23T10:04:38.643Z,1.85
2022-10-23T10:10:45.719Z,2.27
2022-10-23T10:16:51.814Z,2.30
2022-10-23T10:22:54.824Z,2.23
2022-10-23T10:29:02.692Z,2.40
2022-10-23T10:35:22.296Z,2.65
2022-10-23T10:41:40.647Z,2.13
2022-10-23T10:47:42.405Z,2.45
2022-10-23T10:53:45.070Z,2.97
2022-10-23T10:59:47.426Z,2.30
2022-10-23T11:05:50.521Z,2.30
2022-10-23T11:11:52.095Z,2.30
2022-10-23T11:17:55.871Z,2.28
2022-10-23T11:30:25.548Z,2.00
2022-10-23T11:36:42.363Z,1.90
2022-10-23T11:42:44.020Z,1.73
2022-10-23T11:48:47.521Z,2.00
2022-10-23T11:54:48.990Z,1.70
2022-10-23T12:00:57.345Z,1.73
2022-10-23T12:07:01.352Z,1.70
2022-10-23T12:13:05.354Z,1.53
2022-10-23T12:19:19.103Z,1.70
2022-10-23T12:25:29.790Z,1.87
2022-10-23T12:31:47.836Z,1.75
2022-10-23T12:37:58.031Z,1.80
2022-10-23T12:44:01.020Z,1.60
2022-10-23T12:50:02.491Z,2.38
2022-10-23T12:56:05.033Z,1.90
2022-10-23T13:02:26.975Z,2.10
2022-10-23T13:08:38.702Z,2.22
2022-10-23T13:15:08.943Z,1.87
2022-10-23T13:21:16.396Z,1.80
2022-10-23T13:27:32.690Z,2.20
2022-10-23T13:33:35.967Z,1.70
2022-10-23T13:39:37.419Z,1.90
2022-10-23T13:45:40.890Z,1.93
2022-10-23T13:51:44.563Z,2.10
2022-10-23T13:57:46.043Z,2.60
2022-10-23T14:03:50.188Z,2.00
2022-10-23T14:09:53.181Z,2.20
2022-10-23T14:15:54.852Z,2.20
2022-10-23T14:21:57.215Z,2.10
2022-10-23T14:27:58.652Z,2.43
2022-10-23T14:34:01.637Z,2.40
2022-10-23T14:40:03.529Z,2.60
2022-10-23T14:46:23.961Z,2.30
2022-10-23T14:52:25.424Z,2.70
2022-10-23T14:58:26.849Z,2.47
2022-10-23T15:04:28.366Z,2.55
2022-10-23T15:10:29.885Z,3.47
2022-10-23T15:16:31.364Z,3.30
2022-10-23T15:22:32.892Z,4.63
2022-10-23T15:28:34.738Z,4.27
2022-10-23T15:34:37.523Z,4.20
2022-10-23T15:40:38.965Z,4.22
2022-10-23T15:46:40.493Z,4.30
2022-10-23T15:52:42.295Z,4.75
2022-10-23T15:58:43.970Z,4.87
2022-10-23T16:04:45.427Z,5.20
2022-10-23T16:10:46.876Z,5.07
2022-10-23T16:16:48.359Z,3.90
2022-10-23T16:22:49.856Z,3.70
2022-10-23T16:28:55.374Z,3.80
2022-10-23T16:34:56.838Z,4.15
2022-10-23T16:40:58.304Z,3.78
2022-10-23T16:47:30.502Z,3.63
2022-10-23T16:53:33.199Z,3.15
2022-10-23T16:59:34.678Z,3.37
2022-10-23T17:05:36.112Z,3.47
2022-10-23T17:11:38.410Z,4.70
2022-10-23T17:17:39.910Z,4.37
2022-10-23T17:23:41.559Z,2.70
2022-10-23T17:29:43.010Z,2.93
2022-10-23T17:35:45.274Z,3.33
2022-10-23T17:41:46.959Z,3.65
2022-10-23T17:47:48.449Z,3.63
2022-10-23T17:53:50.926Z,3.42
2022-10-23T17:59:53.303Z,4.00
2022-10-23T18:05:54.770Z,3.50
2022-10-23T18:11:56.295Z,3.20
2022-10-23T18:17:57.756Z,3.60
2022-10-23T18:24:00.027Z,3.80
2022-10-23T18:30:35.862Z,4.27
2022-10-23T18:36:39.430Z,2.10
2022-10-23T18:42:41.090Z,1.70
2022-10-23T18:48:43.611Z,1.60
2022-10-23T18:54:45.173Z,1.95
2022-10-23T19:00:47.165Z,1.87
2022-10-23T19:06:49.432Z,1.90
2022-10-23T19:12:50.933Z,1.77
2022-10-23T19:18:56.999Z,2.73
2022-10-23T19:25:02.097Z,2.20
2022-10-23T19:31:03.682Z,2.23
2022-10-23T19:37:05.247Z,2.10
2022-10-23T19:43:06.792Z,2.28
2022-10-23T19:49:08.982Z,1.87
2022-10-23T19:55:11.108Z,2.17
2022-10-23T20:01:15.423Z,3.00
2022-10-23T20:07:17.331Z,2.30
2022-10-23T20:13:20.307Z,2.45
2022-10-23T20:19:22.253Z,2.00
2022-10-23T20:25:23.707Z,2.60
2022-10-23T20:31:26.149Z,1.97
2022-10-23T20:37:27.838Z,2.15
2022-10-23T20:43:29.848Z,1.90
2022-10-23T20:49:31.332Z,2.30
2022-10-23T20:55:32.956Z,2.15
2022-10-23T21:01:34.575Z,2.33
2022-10-23T21:07:36.227Z,2.63
2022-10-23T21:13:37.756Z,2.55
2022-10-23T21:19:39.323Z,2.60
2022-10-23T21:25:41.441Z,2.70
2022-10-23T21:31:42.925Z,2.97
2022-10-23T21:37:44.601Z,2.90
2022-10-23T21:43:46.350Z,3.40
2022-10-23T21:49:47.805Z,3.20
2022-10-23T21:55:49.268Z,2.78
2022-10-23T22:01:51.765Z,2.90
2022-10-23T22:07:53.327Z,3.60
2022-10-23T22:13:55.038Z,3.53
2022-10-23T22:19:56.570Z,3.20
2022-10-23T22:25:58.195Z,2.92
2022-10-23T22:31:59.653Z,2.67
2022-10-23T22:38:01.117Z,3.05
2022-10-23T22:44:02.598Z,2.97
2022-10-23T22:50:04.221Z,3.10
2022-10-23T22:56:06.808Z,2.53
2022-10-23T23:02:08.364Z,2.77
2022-10-23T23:08:09.993Z,2.60
2022-10-23T23:14:11.481Z,2.83
2022-10-23T23:20:13.515Z,6.30
2022-10-23T23:26:15.773Z,3.30
2022-10-23T23:32:17.263Z,4.27
2022-10-23T23:38:18.710Z,3.70
2022-10-23T23:44:20.161Z,3.65
2022-10-23T23:50:21.606Z,2.90
2022-10-23T23:56:23.100Z,3.35
